Time;durP1;ratioP1;P1;durP2;ratioP2;P2;SDS_P1;SDS_P2;PMS_P1;PMS_P2;Temp;Humidity;BMP_temperature;BMP_pressure;BME280_temperature;BME280_humidity;BME280_pressure;Samples;Min_cycle;Max_cycle;Signal;HPM_P1;HPM_P2
2021/09/16 00:00:14;;;;;;;2.35;0.70;;;14.40;93.50;;;;;;4923324;29;20040;-81
2021/09/16 00:02:41;;;;;;;2.67;0.65;;;14.40;93.60;;;;;;4921853;29;20036;-81
2021/09/16 00:05:08;;;;;;;4.47;0.90;;;14.40;93.70;;;;;;4935919;29;20039;-81
2021/09/16 00:07:34;;;;;;;4.05;0.70;;;14.30;93.80;;;;;;4919851;29;20044;-82
2021/09/16 00:10:00;;;;;;;4.43;1.05;;;14.30;93.80;;;;;;4935933;29;20031;-80
2021/09/16 00:12:25;;;;;;;4.20;1.10;;;14.20;93.90;;;;;;4919604;29;20184;-81
2021/09/16 00:14:51;;;;;;;4.68;0.68;;;14.20;94.00;;;;;;4919538;29;20024;-80
2021/09/16 00:17:17;;;;;;;7.13;0.90;;;14.10;94.00;;;;;;4918811;29;20064;-81
2021/09/16 00:19:43;;;;;;;3.63;0.70;;;14.10;94.10;;;;;;4903769;29;20036;-81
2021/09/16 00:22:09;;;;;;;2.55;0.75;;;14.00;94.20;;;;;;4920897;29;20039;-81
2021/09/16 00:24:34;;;;;;;2.75;0.73;;;14.00;94.30;;;;;;4902855;29;20032;-84
2021/09/16 00:27:00;;;;;;;4.65;1.13;;;13.90;94.40;;;;;;4888009;29;20039;-81
2021/09/16 00:29:26;;;;;;;4.68;1.35;;;13.90;94.50;;;;;;4918952;29;20036;-81
2021/09/16 00:31:51;;;;;;;5.60;1.00;;;13.80;94.60;;;;;;4887945;29;20127;-82
2021/09/16 00:34:17;;;;;;;3.30;1.20;;;13.80;94.80;;;;;;4888023;29;20417;-82
2021/09/16 00:36:43;;;;;;;3.20;1.10;;;13.70;94.90;;;;;;4903347;29;20465;-81
2021/09/16 00:39:08;;;;;;;5.47;1.30;;;13.70;95.00;;;;;;4919142;29;20032;-81
2021/09/16 00:41:34;;;;;;;4.47;1.17;;;13.60;95.10;;;;;;4887001;29;20072;-84
2021/09/16 00:44:00;;;;;;;3.58;1.38;;;13.60;95.30;;;;;;4903185;29;20444;-81
2021/09/16 00:46:26;;;;;;;7.15;1.80;;;13.50;95.40;;;;;;4918294;29;20071;-81
2021/09/16 00:48:53;;;;;;;4.35;1.80;;;13.50;95.50;;;;;;4918339;29;20089;-80
2021/09/16 00:51:19;;;;;;;4.53;1.75;;;13.50;95.60;;;;;;4919514;29;20061;-81
2021/09/16 00:53:46;;;;;;;5.18;2.60;;;13.50;95.70;;;;;;4886945;29;20032;-81
2021/09/16 00:56:13;;;;;;;4.00;2.13;;;13.40;95.70;;;;;;4918220;29;20051;-81
2021/09/16 00:58:41;;;;;;;3.97;2.33;;;13.40;95.80;;;;;;4892469;29;20063;-84
2021/09/16 01:01:07;;;;;;;3.80;2.05;;;13.40;95.80;;;;;;4884023;29;20202;-81
2021/09/16 01:03:34;;;;;;;5.90;2.45;;;13.40;95.90;;;;;;4915240;29;20109;-81
2021/09/16 01:06:00;;;;;;;5.63;2.42;;;13.30;96.00;;;;;;4900014;29;20048;-82
2021/09/16 01:08:26;;;;;;;4.88;2.47;;;13.30;96.00;;;;;;4915114;29;20528;-81
2021/09/16 01:10:52;;;;;;;5.55;2.15;;;13.30;96.10;;;;;;4868634;29;20033;-81
2021/09/16 01:13:18;;;;;;;7.53;2.28;;;13.30;96.10;;;;;;4867891;29;20029;-80
2021/09/16 01:15:45;;;;;;;6.00;2.42;;;13.20;96.20;;;;;;4883962;29;20037;-82
2021/09/16 01:18:12;;;;;;;5.22;2.78;;;13.20;96.20;;;;;;4899590;29;20376;-81
2021/09/16 01:20:38;;;;;;;5.75;2.65;;;13.10;96.30;;;;;;4898935;29;20084;-82
2021/09/16 01:23:04;;;;;;;5.47;2.85;;;13.10;96.30;;;;;;4900295;29;20033;-81
2021/09/16 01:25:31;;;;;;;9.27;3.70;;;13.10;96.40;;;;;;4913992;29;20085;-81
2021/09/16 01:27:58;;;;;;;7.47;3.05;;;13.10;96.50;;;;;;4883315;29;20041;-81
2021/09/16 01:30:25;;;;;;;6.00;2.90;;;13.10;96.50;;;;;;4898072;29;20032;-82
2021/09/16 01:32:54;;;;;;;12.07;2.80;;;13.00;96.50;;;;;;4914285;29;20021;-81
2021/09/16 01:35:21;;;;;;;5.72;3.15;;;13.00;96.60;;;;;;4913253;29;20043;-81
2021/09/16 01:37:48;;;;;;;7.50;3.28;;;12.90;96.60;;;;;;4897790;29;20045;-83
2021/09/16 01:40:14;;;;;;;7.05;3.08;;;12.90;96.70;;;;;;4914184;29;20056;-82
2021/09/16 01:42:45;;;;;;;4.93;3.05;;;12.90;96.70;;;;;;4899346;29;20480;-81
2021/09/16 01:45:19;;;;;;;8.00;3.75;;;12.80;96.80;;;;;;4899790;29;20032;-81
2021/09/16 01:47:46;;;;;;;7.32;3.92;;;12.90;96.90;;;;;;4899951;29;20473;-85
2021/09/16 01:50:14;;;;;;;5.65;3.38;;;12.80;96.90;;;;;;4898360;29;20028;-81
2021/09/16 01:52:40;;;;;;;5.40;3.33;;;12.80;96.90;;;;;;4913746;29;20084;-82
2021/09/16 01:55:06;;;;;;;7.65;4.15;;;12.80;97.00;;;;;;4898305;29;20032;-82
2021/09/16 01:57:32;;;;;;;8.48;4.10;;;12.80;97.00;;;;;;4883070;29;20092;-81
2021/09/16 01:59:58;;;;;;;6.18;3.58;;;12.80;97.10;;;;;;4900811;29;20052;-80
2021/09/16 02:02:24;;;;;;;7.88;4.40;;;12.80;97.10;;;;;;4885779;29;20032;-80
2021/09/16 02:04:49;;;;;;;5.25;3.55;;;12.80;97.10;;;;;;4932676;29;20480;-82
2021/09/16 02:07:15;;;;;;;5.18;3.58;;;12.70;97.10;;;;;;4917411;29;20465;-82
2021/09/16 02:09:40;;;;;;;6.40;3.65;;;12.70;97.20;;;;;;4885320;29;20036;-82
2021/09/16 02:12:07;;;;;;;6.95;3.97;;;12.70;97.20;;;;;;4916608;29;20020;-83
2021/09/16 02:14:32;;;;;;;7.32;3.92;;;12.70;97.30;;;;;;4932414;29;20031;-81
2021/09/16 02:16:58;;;;;;;8.10;3.85;;;12.60;97.30;;;;;;4916321;29;20477;-81
2021/09/16 02:19:23;;;;;;;8.57;4.10;;;12.60;97.40;;;;;;4901046;29;20055;-81
2021/09/16 02:21:50;;;;;;;8.75;4.25;;;12.60;97.40;;;;;;4900770;29;20040;-83
2021/09/16 02:24:15;;;;;;;5.57;3.83;;;12.60;97.50;;;;;;4885369;29;20032;-81
2021/09/16 02:26:41;;;;;;;6.47;4.15;;;12.60;97.50;;;;;;4885191;29;20383;-81
2021/09/16 02:29:07;;;;;;;8.65;4.20;;;12.50;97.50;;;;;;4917663;29;20095;-81
2021/09/16 02:31:32;;;;;;;7.32;3.95;;;12.50;97.80;;;;;;4917685;29;20035;-83
2021/09/16 02:33:58;;;;;;;5.32;3.78;;;12.40;97.80;;;;;;4901273;29;20376;-85
2021/09/16 02:36:25;;;;;;;10.50;4.18;;;12.50;97.70;;;;;;4932235;29;20043;-81
2021/09/16 02:38:51;;;;;;;4.97;3.80;;;12.40;97.70;;;;;;4916707;29;20441;-83
2021/09/16 02:41:17;;;;;;;10.93;4.82;;;12.40;97.80;;;;;;4900376;29;20059;-81
2021/09/16 02:43:42;;;;;;;9.90;4.38;;;12.40;97.80;;;;;;4900759;29;20043;-81
2021/09/16 02:46:08;;;;;;;6.95;4.05;;;12.40;97.90;;;;;;4916756;29;20084;-81
2021/09/16 02:48:34;;;;;;;9.95;4.18;;;12.30;97.90;;;;;;4915699;29;20035;-83
2021/09/16 02:50:59;;;;;;;7.07;4.70;;;12.30;97.90;;;;;;4900625;29;20084;-82
2021/09/16 02:53:25;;;;;;;5.13;3.72;;;12.30;97.90;;;;;;4900752;29;20449;-82
2021/09/16 02:55:51;;;;;;;5.90;4.05;;;12.30;98.00;;;;;;4884600;29;20392;-81
2021/09/16 02:58:16;;;;;;;6.80;3.92;;;12.30;98.00;;;;;;4911038;29;20056;-81
2021/09/16 03:00:42;;;;;;;6.45;4.13;;;12.30;98.00;;;;;;4897156;29;20025;-81
2021/09/16 03:03:08;;;;;;;6.90;3.92;;;12.30;98.10;;;;;;4881254;29;20040;-81
2021/09/16 03:05:34;;;;;;;6.80;3.88;;;12.20;98.10;;;;;;4912900;29;20504;-81
2021/09/16 03:08:00;;;;;;;5.82;4.15;;;12.20;98.10;;;;;;4881581;29;20041;-81
2021/09/16 03:10:26;;;;;;;6.38;4.35;;;12.20;98.10;;;;;;4896841;29;20036;-81
2021/09/16 03:12:52;;;;;;;6.05;4.10;;;12.20;98.20;;;;;;4881380;29;20029;-81
2021/09/16 03:15:18;;;;;;;6.35;3.75;;;12.10;98.20;;;;;;4896825;29;20025;-81
2021/09/16 03:17:44;;;;;;;7.22;3.70;;;12.10;98.30;;;;;;4896717;29;20496;-81
2021/09/16 03:20:11;;;;;;;4.28;3.15;;;12.10;98.30;;;;;;4896984;29;20033;-81
2021/09/16 03:22:37;;;;;;;5.82;3.70;;;12.10;98.30;;;;;;4898390;29;20032;-81
2021/09/16 03:25:05;;;;;;;7.10;3.65;;;12.10;98.30;;;;;;4865660;29;20029;-81
2021/09/16 03:27:30;;;;;;;7.47;4.35;;;12.10;98.40;;;;;;4897731;29;20032;-80
2021/09/16 03:29:56;;;;;;;6.95;3.83;;;12.10;98.40;;;;;;4881119;29;20096;-81
2021/09/16 03:32:22;;;;;;;6.57;4.22;;;12.10;98.40;;;;;;4913029;29;20119;-81
2021/09/16 03:34:47;;;;;;;5.00;3.72;;;12.10;98.40;;;;;;4865633;29;20124;-82
2021/09/16 03:37:13;;;;;;;7.82;4.45;;;12.10;98.50;;;;;;4896720;29;20124;-81
2021/09/16 03:39:39;;;;;;;6.70;4.55;;;12.00;98.50;;;;;;4896633;29;20029;-81
2021/09/16 03:42:05;;;;;;;7.38;4.45;;;12.00;98.50;;;;;;4865882;29;20035;-81
2021/09/16 03:44:31;;;;;;;6.22;4.57;;;12.00;98.60;;;;;;4881244;29;20039;-82
2021/09/16 03:46:56;;;;;;;6.55;4.80;;;12.00;98.60;;;;;;4896754;29;20496;-81
2021/09/16 03:49:22;;;;;;;5.80;4.50;;;12.00;98.60;;;;;;4888678;29;20123;-82
2021/09/16 03:51:48;;;;;;;9.87;4.43;;;12.00;98.70;;;;;;4881486;29;20043;-81
2021/09/16 03:54:14;;;;;;;9.93;4.57;;;11.90;98.70;;;;;;4896591;29;20449;-81
2021/09/16 03:56:39;;;;;;;6.35;4.60;;;11.90;98.70;;;;;;4897201;29;20080;-81
2021/09/16 03:59:05;;;;;;;8.93;4.90;;;11.90;98.80;;;;;;4909747;29;20063;-83
2021/09/16 04:01:31;;;;;;;8.40;4.97;;;11.90;98.80;;;;;;4934594;29;20055;-81
2021/09/16 04:03:57;;;;;;;7.95;4.95;;;11.90;98.80;;;;;;4921278;29;20040;-82
2021/09/16 04:06:22;;;;;;;12.23;5.50;;;11.90;98.80;;;;;;4888711;29;20035;-81
2021/09/16 04:08:48;;;;;;;10.03;5.47;;;11.90;98.90;;;;;;4890874;29;20039;-81
2021/09/16 04:11:13;;;;;;;10.30;5.50;;;11.90;98.90;;;;;;4887376;29;20065;-81
2021/09/16 04:13:39;;;;;;;8.03;5.57;;;11.80;98.90;;;;;;4889137;29;20075;-81
2021/09/16 04:16:05;;;;;;;9.03;5.07;;;11.90;99.00;;;;;;4887795;29;20068;-83
2021/09/16 04:18:30;;;;;;;10.03;5.50;;;11.80;99.00;;;;;;4887488;29;20136;-81
2021/09/16 04:20:56;;;;;;;9.02;5.38;;;11.80;99.00;;;;;;4918863;29;20032;-82
2021/09/16 04:23:22;;;;;;;9.35;5.13;;;11.80;99.00;;;;;;4918875;29;20036;-81
2021/09/16 04:25:47;;;;;;;7.78;5.22;;;11.80;99.00;;;;;;4903294;29;20088;-81
2021/09/16 04:28:13;;;;;;;9.75;6.38;;;11.80;99.10;;;;;;4918569;29;20036;-81
2021/09/16 04:30:39;;;;;;;9.20;5.72;;;11.80;99.30;;;;;;4902756;29;20036;-81
2021/09/16 04:33:04;;;;;;;10.27;6.37;;;11.80;99.10;;;;;;4919355;29;20362;-83
2021/09/16 04:35:30;;;;;;;9.90;6.30;;;11.80;99.10;;;;;;4918334;29;20032;-83
2021/09/16 04:37:55;;;;;;;11.43;6.00;;;11.80;99.10;;;;;;4918615;29;20035;-83
2021/09/16 04:40:21;;;;;;;10.53;7.10;;;11.80;99.20;;;;;;4887553;29;20523;-82
2021/09/16 04:42:47;;;;;;;10.03;7.43;;;11.80;99.20;;;;;;4919202;29;20028;-82
2021/09/16 04:45:13;;;;;;;9.60;7.55;;;11.80;99.20;;;;;;4888028;29;20028;-83
2021/09/16 04:47:40;;;;;;;15.27;9.05;;;11.70;99.20;;;;;;4919333;29;20032;-82
2021/09/16 04:50:14;;;;;;;13.03;9.50;;;11.70;99.20;;;;;;4887334;29;20032;-82
2021/09/16 04:52:40;;;;;;;17.65;10.77;;;11.70;99.20;;;;;;4934417;29;20026;-82
2021/09/16 04:55:07;;;;;;;16.60;10.33;;;11.70;99.30;;;;;;4887206;29;20028;-82
2021/09/16 04:57:32;;;;;;;17.40;10.80;;;11.80;99.30;;;;;;4935394;29;20032;-82
2021/09/16 04:59:58;;;;;;;18.20;12.00;;;11.80;99.30;;;;;;4902567;29;20059;-81
2021/09/16 05:02:24;;;;;;;16.50;11.43;;;11.80;99.30;;;;;;4903621;29;20062;-82
2021/09/16 05:04:50;;;;;;;18.43;11.47;;;11.80;99.50;;;;;;4918681;29;20040;-82
2021/09/16 05:07:16;;;;;;;19.30;12.20;;;11.80;99.30;;;;;;4918068;29;20040;-84
2021/09/16 05:09:41;;;;;;;20.30;12.23;;;11.90;99.30;;;;;;4872000;29;20039;-82
2021/09/16 05:12:07;;;;;;;21.30;12.60;;;11.90;99.30;;;;;;4886748;29;20032;-81
2021/09/16 05:14:33;;;;;;;21.30;13.50;;;12.00;99.30;;;;;;4874903;29;20032;-83
2021/09/16 05:16:59;;;;;;;21.67;13.25;;;12.00;99.30;;;;;;4907090;29;20364;-83
2021/09/16 05:19:25;;;;;;;25.90;13.85;;;12.00;99.30;;;;;;4922199;29;20054;-82
2021/09/16 05:21:50;;;;;;;20.13;13.73;;;12.10;99.30;;;;;;4907504;29;20036;-83
2021/09/16 05:24:17;;;;;;;22.08;14.10;;;12.10;99.30;;;;;;4875455;29;20063;-84
2021/09/16 05:26:44;;;;;;;20.92;14.45;;;12.20;99.30;;;;;;4906118;29;20059;-83
2021/09/16 05:29:10;;;;;;;22.63;14.98;;;12.20;99.40;;;;;;4874882;29;20042;-83
2021/09/16 05:31:36;;;;;;;27.70;16.75;;;12.30;99.40;;;;;;4889929;29;20024;-83
2021/09/16 05:34:02;;;;;;;26.33;16.92;;;12.30;99.40;;;;;;4912427;29;20055;-82
2021/09/16 05:36:28;;;;;;;24.90;16.43;;;12.30;99.60;;;;;;4927277;29;20087;-82
2021/09/16 05:38:54;;;;;;;26.02;17.05;;;12.40;99.40;;;;;;4888101;29;20039;-83
2021/09/16 05:41:20;;;;;;;22.70;16.00;;;12.50;99.40;;;;;;4935066;29;20031;-85
2021/09/16 05:43:46;;;;;;;27.70;17.55;;;12.60;99.40;;;;;;4871910;29;20119;-83
2021/09/16 05:46:11;;;;;;;28.98;17.80;;;12.70;99.40;;;;;;4872744;29;20100;-83
2021/09/16 05:48:37;;;;;;;29.48;18.98;;;12.70;99.30;;;;;;4908443;29;20036;-84
2021/09/16 05:51:03;;;;;;;26.50;17.45;;;12.80;99.30;;;;;;4882317;29;20043;-84
2021/09/16 05:53:29;;;;;;;28.63;17.02;;;12.80;99.30;;;;;;4902919;29;20548;-84
2021/09/16 05:55:55;;;;;;;30.42;19.13;;;12.90;99.30;;;;;;4891347;29;20033;-83
2021/09/16 05:58:21;;;;;;;29.20;18.65;;;13.00;99.30;;;;;;4940435;29;20076;-83
2021/09/16 06:00:46;;;;;;;31.75;20.80;;;13.20;99.40;;;;;;4925453;29;20052;-83
2021/09/16 06:03:12;;;;;;;34.65;20.48;;;13.60;99.50;;;;;;4941862;29;20012;-86
2021/09/16 06:05:38;;;;;;;32.10;19.40;;;14.00;99.20;;;;;;4940324;29;20024;-85
2021/09/16 06:08:04;;;;;;;30.25;18.58;;;14.30;98.90;;;;;;4924340;29;20051;-83
2021/09/16 06:10:30;;;;;;;24.98;17.80;;;15.00;98.40;;;;;;4897752;29;20032;-82
2021/09/16 06:12:56;;;;;;;23.00;15.13;;;15.60;97.20;;;;;;4921470;29;20105;-83
2021/09/16 06:15:22;;;;;;;22.48;15.18;;;16.00;95.80;;;;;;4921451;29;20102;-83
2021/09/16 06:17:47;;;;;;;20.23;13.52;;;15.90;94.80;;;;;;4905542;29;20042;-82
2021/09/16 06:20:13;;;;;;;19.92;13.98;;;15.80;94.40;;;;;;4921322;29;20032;-83
2021/09/16 06:22:39;;;;;;;24.33;14.90;;;15.60;94.50;;;;;;4919759;29;20028;-83
2021/09/16 06:25:07;;;;;;;20.40;14.30;;;15.60;94.60;;;;;;4904613;29;20040;-82
2021/09/16 06:27:33;;;;;;;20.70;14.80;;;15.60;94.70;;;;;;4920527;29;20472;-83
2021/09/16 06:30:02;;;;;;;19.27;14.27;;;15.80;94.50;;;;;;4920166;29;20075;-83
2021/09/16 06:32:28;;;;;;;20.05;13.98;;;16.00;94.00;;;;;;4902300;29;20028;-84
2021/09/16 06:34:54;;;;;;;22.02;14.18;;;16.10;93.60;;;;;;4916961;29;20377;-84
2021/09/16 06:37:20;;;;;;;20.02;13.65;;;16.30;93.60;;;;;;4885716;29;20472;-83
2021/09/16 06:39:47;;;;;;;17.40;12.48;;;17.00;93.30;;;;;;4901801;29;20036;-85
2021/09/16 06:42:13;;;;;;;16.95;12.27;;;17.80;91.70;;;;;;4901775;29;20372;-84
2021/09/16 06:44:38;;;;;;;17.83;11.73;;;18.80;89.70;;;;;;4917258;29;20040;-85
2021/09/16 06:47:04;;;;;;;12.15;9.73;;;19.60;85.50;;;;;;4901399;29;20036;-84
2021/09/16 06:49:35;;;;;;;16.42;10.27;;;20.30;81.80;;;;;;4917418;29;20033;-86
2021/09/16 06:52:03;;;;;;;13.65;9.93;;;20.90;79.00;;;;;;4933145;29;20028;-84
2021/09/16 06:54:29;;;;;;;17.05;8.60;;;21.50;76.70;;;;;;4901153;29;20036;-85
2021/09/16 06:56:54;;;;;;;11.95;8.60;;;21.90;74.20;;;;;;4885887;29;20032;-83
2021/09/16 06:59:20;;;;;;;11.30;8.75;;;22.30;72.60;;;;;;4900782;29;20400;-84
2021/09/16 07:01:46;;;;;;;11.15;7.72;;;22.70;71.50;;;;;;4917380;29;20028;-85
2021/09/16 07:04:12;;;;;;;10.70;7.60;;;23.00;70.10;;;;;;4901511;29;20449;-84
2021/09/16 07:06:38;;;;;;;11.10;7.70;;;23.30;69.50;;;;;;4901008;29;20487;-85
2021/09/16 07:09:04;;;;;;;12.38;7.50;;;23.60;68.00;;;;;;4917744;29;20147;-84
2021/09/16 07:11:30;;;;;;;9.25;7.47;;;23.90;67.10;;;;;;4933030;29;20030;-83
2021/09/16 07:13:56;;;;;;;10.73;7.40;;;24.20;66.30;;;;;;4916555;29;20126;-84
2021/09/16 07:16:21;;;;;;;11.45;7.22;;;24.50;65.30;;;;;;4916475;29;20036;-83
2021/09/16 07:18:47;;;;;;;7.10;6.40;;;24.70;64.40;;;;;;4917590;29;20032;-83
2021/09/16 07:21:13;;;;;;;7.35;6.20;;;25.00;64.00;;;;;;4900551;29;20035;-83
2021/09/16 07:23:39;;;;;;;7.45;6.22;;;25.30;63.00;;;;;;4915964;29;20033;-83
2021/09/16 07:26:05;;;;;;;8.65;5.82;;;25.40;61.90;;;;;;4915976;29;20035;-82
2021/09/16 07:28:35;;;;;;;7.43;6.22;;;25.60;61.30;;;;;;4932460;29;20051;-83
2021/09/16 07:31:02;;;;;;;7.85;5.53;;;25.80;61.20;;;;;;4931957;29;20472;-82
2021/09/16 07:33:28;;;;;;;7.07;5.53;;;26.00;60.90;;;;;;4902490;29;20094;-82
2021/09/16 07:35:53;;;;;;;7.07;5.40;;;26.20;60.10;;;;;;4921582;29;20028;-82
2021/09/16 07:38:19;;;;;;;7.20;5.05;;;26.40;59.80;;;;;;4906012;29;20044;-82
2021/09/16 07:40:45;;;;;;;5.57;4.63;;;26.60;58.70;;;;;;4907769;29;20425;-82
2021/09/16 07:43:11;;;;;;;9.13;5.53;;;26.80;58.20;;;;;;4927604;29;20088;-84
2021/09/16 07:45:37;;;;;;;8.80;5.60;;;26.90;57.10;;;;;;4911398;29;20021;-88
2021/09/16 07:48:03;;;;;;;7.28;5.45;;;27.00;56.80;;;;;;4912442;29;20040;-83
2021/09/16 07:50:29;;;;;;;5.97;4.95;;;27.10;56.40;;;;;;4931525;29;20088;-85
2021/09/16 07:52:55;;;;;;;6.20;5.47;;;27.30;56.00;;;;;;4920564;29;20036;-84
2021/09/16 07:55:20;;;;;;;6.47;4.70;;;27.50;55.20;;;;;;4937424;29;20036;-84
2021/09/16 07:57:46;;;;;;;8.50;4.65;;;27.60;54.60;;;;;;4919230;29;20032;-83
2021/09/16 08:00:13;;;;;;;6.13;3.83;;;27.60;54.20;;;;;;4952521;29;20500;-84
2021/09/16 08:02:47;;;;;;;5.13;4.15;;;27.60;54.00;;;;;;4922801;29;20044;-89
2021/09/16 08:05:14;;;;;;;6.05;4.05;;;27.80;53.70;;;;;;4937400;29;20060;-82
2021/09/16 08:07:40;;;;;;;7.50;4.55;;;27.90;54.20;;;;;;4919837;29;20036;-86
2021/09/16 08:10:06;;;;;;;6.45;3.38;;;28.10;52.90;;;;;;4935240;29;20032;-83
2021/09/16 08:12:32;;;;;;;5.03;3.50;;;28.20;52.40;;;;;;4950683;29;20084;-81
2021/09/16 08:14:59;;;;;;;3.90;3.10;;;28.30;52.30;;;;;;4932362;29;20036;-82
2021/09/16 08:17:24;;;;;;;4.75;2.88;;;28.50;52.30;;;;;;4916399;29;20079;-82
2021/09/16 08:19:50;;;;;;;3.67;2.50;;;28.60;51.70;;;;;;4950095;29;20377;-82
2021/09/16 08:22:16;;;;;;;4.00;2.85;;;28.80;51.10;;;;;;4947674;29;20040;-82
2021/09/16 08:24:43;;;;;;;5.65;2.70;;;28.90;50.40;;;;;;4914434;29;20032;-85
2021/09/16 08:27:09;;;;;;;6.35;2.83;;;28.90;50.10;;;;;;4911117;29;20063;-82
2021/09/16 08:29:35;;;;;;;3.13;2.45;;;29.00;49.80;;;;;;4926309;29;20043;-80
2021/09/16 08:32:01;;;;;;;5.05;2.70;;;29.10;49.60;;;;;;4909812;29;20028;-80
2021/09/16 08:34:28;;;;;;;3.25;2.30;;;29.20;48.80;;;;;;4922586;29;20040;-82
2021/09/16 08:36:55;;;;;;;3.63;2.80;;;29.10;49.60;;;;;;4921280;29;20040;-80
2021/09/16 08:39:22;;;;;;;4.03;2.60;;;29.10;49.10;;;;;;4903772;29;20084;-82
2021/09/16 08:41:48;;;;;;;3.92;2.60;;;29.20;49.30;;;;;;4903352;29;20092;-83
2021/09/16 08:44:16;;;;;;;3.58;1.98;;;29.30;48.80;;;;;;4919056;29;20040;-82
2021/09/16 08:46:42;;;;;;;3.72;2.08;;;28.90;48.80;;;;;;4886835;29;20067;-81
2021/09/16 08:49:08;;;;;;;5.03;2.10;;;28.70;50.10;;;;;;4919545;29;20048;-82
2021/09/16 08:51:34;;;;;;;4.03;1.70;;;28.90;49.50;;;;;;4919268;29;20039;-82
2021/09/16 08:54:01;;;;;;;4.65;1.98;;;29.20;49.00;;;;;;4918413;29;20432;-80
2021/09/16 08:56:27;;;;;;;3.65;1.48;;;29.50;48.30;;;;;;4902719;29;20032;-82
2021/09/16 08:59:00;;;;;;;3.75;1.85;;;29.70;48.00;;;;;;4902286;29;20080;-81
2021/09/16 09:01:26;;;;;;;4.35;1.85;;;29.50;47.40;;;;;;4903365;29;20036;-81
2021/09/16 09:03:52;;;;;;;2.72;1.65;;;28.50;48.40;;;;;;4919349;29;20033;-82
2021/09/16 09:06:34;;;;;;;2.78;1.60;;;27.70;50.40;;;;;;4902595;29;20380;-81
2021/09/16 09:09:20;;;;;;;3.20;1.48;;;27.00;51.30;;;;;;4903061;29;20036;-81
2021/09/16 09:11:55;;;;;;;2.20;0.98;;;26.60;51.70;;;;;;4919707;29;20032;-82
2021/09/16 09:14:23;;;;;;;3.25;1.27;;;26.10;52.10;;;;;;4919925;29;20028;-82
2021/09/16 09:16:50;;;;;;;3.13;1.10;;;25.80;53.40;;;;;;4902379;29;20043;-83
2021/09/16 09:19:18;;;;;;;1.95;1.20;;;25.80;54.10;;;;;;4919131;29;20052;-81
2021/09/16 09:21:45;;;;;;;3.15;1.00;;;26.40;53.30;;;;;;4934284;29;20257;-82
2021/09/16 09:24:12;;;;;;;3.70;0.95;;;26.70;51.70;;;;;;4902890;29;20082;-82
2021/09/16 09:26:40;;;;;;;2.35;0.73;;;26.40;51.60;;;;;;4903328;29;20063;-82
2021/09/16 09:29:09;;;;;;;4.28;0.85;;;25.80;52.70;;;;;;4918733;29;20030;-81
2021/09/16 09:31:54;;;;;;;1.52;0.70;;;25.20;53.40;;;;;;4920191;29;20028;-82
2021/09/16 09:34:32;;;;;;;3.00;0.80;;;24.90;54.30;;;;;;4902596;29;20087;-82
2021/09/16 09:37:18;;;;;;;1.85;0.70;;;24.50;54.90;;;;;;4919608;29;20040;-81
2021/09/16 09:39:50;;;;;;;5.70;0.93;;;24.30;56.00;;;;;;4918712;29;20036;-82
2021/09/16 09:42:27;;;;;;;2.30;0.70;;;24.40;56.60;;;;;;4933927;29;20028;-81
2021/09/16 09:45:06;;;;;;;3.35;0.90;;;25.30;55.20;;;;;;4902385;29;20028;-84
2021/09/16 09:47:40;;;;;;;2.30;0.90;;;26.60;53.20;;;;;;4919174;29;20058;-80
2021/09/16 09:50:19;;;;;;;1.88;0.77;;;27.40;51.30;;;;;;4901372;29;20103;-82
2021/09/16 09:52:46;;;;;;;3.25;0.70;;;27.40;50.80;;;;;;4915452;29;20118;-82
2021/09/16 09:55:14;;;;;;;1.92;0.60;;;26.90;51.10;;;;;;4901539;29;20466;-81
2021/09/16 09:57:40;;;;;;;1.15;0.50;;;26.30;51.90;;;;;;4931889;29;20388;-82
2021/09/16 10:00:08;;;;;;;3.78;0.60;;;25.70;52.30;;;;;;4932803;29;20476;-82
2021/09/16 10:02:50;;;;;;;2.42;0.70;;;25.70;53.00;;;;;;4901513;29;20344;-82
2021/09/16 10:05:27;;;;;;;2.45;0.50;;;26.40;52.20;;;;;;4901399;29;20123;-83
2021/09/16 10:08:09;;;;;;;2.38;0.70;;;27.10;50.60;;;;;;4918103;29;20153;-82
2021/09/16 10:10:52;;;;;;;1.00;0.45;;;27.00;50.40;;;;;;4900940;29;20032;-82
2021/09/16 10:13:21;;;;;;;1.52;0.40;;;26.70;50.60;;;;;;4917543;29;20325;-82
2021/09/16 10:15:48;;;;;;;1.88;0.40;;;26.20;51.40;;;;;;4918469;29;20059;-82
2021/09/16 10:18:14;;;;;;;1.35;0.40;;;25.70;52.00;;;;;;4916928;29;20103;-82
2021/09/16 10:20:40;;;;;;;1.15;0.35;;;25.50;53.10;;;;;;4916587;29;20119;-81
2021/09/16 10:23:09;;;;;;;1.95;0.40;;;25.80;52.70;;;;;;4932887;29;20028;-81
2021/09/16 10:25:44;;;;;;;2.63;0.60;;;26.00;52.50;;;;;;4916478;29;20130;-82
2021/09/16 10:28:11;;;;;;;2.20;0.57;;;25.90;52.80;;;;;;4902065;29;20024;-81
2021/09/16 10:30:40;;;;;;;4.40;0.50;;;25.60;53.00;;;;;;4918375;29;20020;-81
2021/09/16 10:33:09;;;;;;;2.00;0.60;;;25.40;53.70;;;;;;4900925;29;20028;-83
2021/09/16 10:35:39;;;;;;;3.15;0.50;;;25.10;54.30;;;;;;4900560;29;20075;-80
2021/09/16 10:38:27;;;;;;;2.28;0.50;;;25.20;54.90;;;;;;4917198;29;20044;-82
2021/09/16 10:41:12;;;;;;;1.25;0.40;;;25.30;54.10;;;;;;4932210;29;20087;-80
2021/09/16 10:43:39;;;;;;;2.05;0.50;;;25.30;54.20;;;;;;4917492;29;20028;-81
2021/09/16 10:46:43;;;;;;;1.70;0.50;;;25.30;54.40;;;;;;4900946;29;20063;-82
2021/09/16 10:49:24;;;;;;;1.38;0.60;;;25.60;54.20;;;;;;4900688;29;20024;-81
2021/09/16 10:52:11;;;;;;;1.52;0.45;;;26.10;53.30;;;;;;4901297;29;20032;-80
2021/09/16 10:54:41;;;;;;;3.65;0.50;;;26.60;52.60;;;;;;4903168;29;20028;-82
2021/09/16 10:57:34;;;;;;;2.35;0.47;;;27.00;51.20;;;;;;4911229;29;20036;-82
2021/09/16 11:00:00;;;;;;;3.80;0.68;;;27.40;50.70;;;;;;4922395;29;20060;-84
2021/09/16 11:02:35;;;;;;;1.92;0.50;;;27.70;49.50;;;;;;4910607;29;20477;-83
2021/09/16 11:05:02;;;;;;;2.40;0.60;;;27.90;49.00;;;;;;4921526;29;20033;-83
2021/09/16 11:07:34;;;;;;;2.47;0.40;;;27.80;48.30;;;;;;4901482;29;20088;-82
2021/09/16 11:10:16;;;;;;;2.85;0.47;;;27.50;48.40;;;;;;4904598;29;20025;-85
2021/09/16 11:13:05;;;;;;;2.60;0.60;;;27.00;48.50;;;;;;4904668;29;20421;-83
2021/09/16 11:15:36;;;;;;;2.65;0.55;;;26.90;49.70;;;;;;4904582;29;20119;-84
2021/09/16 11:18:16;;;;;;;2.20;0.60;;;26.90;50.20;;;;;;4920135;29;20047;-84
2021/09/16 11:20:45;;;;;;;3.17;0.60;;;27.10;49.70;;;;;;4935512;29;20065;-79
2021/09/16 11:23:12;;;;;;;2.40;0.50;;;27.10;49.60;;;;;;4888751;29;20032;-83
2021/09/16 11:25:56;;;;;;;4.68;0.40;;;27.30;49.10;;;;;;4919601;29;20532;-82
2021/09/16 11:28:22;;;;;;;2.30;0.50;;;27.40;48.70;;;;;;4903280;29;20028;-84
2021/09/16 11:30:48;;;;;;;1.35;0.40;;;27.50;49.10;;;;;;4919585;29;20066;-83
2021/09/16 11:33:17;;;;;;;1.40;0.45;;;27.70;48.20;;;;;;4919352;29;20474;-84
2021/09/16 11:35:44;;;;;;;2.08;0.40;;;27.70;48.80;;;;;;4920447;29;20048;-84
2021/09/16 11:38:10;;;;;;;1.45;0.30;;;27.60;48.90;;;;;;4888558;29;20127;-85
2021/09/16 11:40:39;;;;;;;2.03;0.40;;;27.50;48.40;;;;;;4935450;29;20032;-85
2021/09/16 11:43:07;;;;;;;2.05;0.40;;;27.20;48.40;;;;;;4920808;29;20091;-84
2021/09/16 11:45:45;;;;;;;2.25;0.40;;;27.00;48.70;;;;;;4904681;29;20074;-82
2021/09/16 11:48:21;;;;;;;0.93;0.35;;;26.70;48.90;;;;;;4927348;29;20040;-84
2021/09/16 11:50:50;;;;;;;2.00;0.50;;;26.70;49.80;;;;;;4929458;29;20028;-85
2021/09/16 11:53:24;;;;;;;2.17;0.40;;;26.90;49.40;;;;;;4904274;29;20024;-83
2021/09/16 11:55:53;;;;;;;2.33;0.60;;;27.10;50.10;;;;;;4936047;29;20032;-84
2021/09/16 11:58:21;;;;;;;2.55;0.40;;;27.30;48.80;;;;;;4905182;29;20051;-85
2021/09/16 12:00:50;;;;;;;1.98;0.40;;;27.50;48.40;;;;;;4929136;29;20047;-84
2021/09/16 12:03:49;;;;;;;0.95;0.30;;;27.60;48.10;;;;;;4927853;29;20081;-85
2021/09/16 12:06:16;;;;;;;3.28;0.63;;;27.80;48.40;;;;;;4906997;29;20052;-84
2021/09/16 12:08:47;;;;;;;1.90;0.63;;;27.80;47.80;;;;;;4909793;29;20080;-85
2021/09/16 12:11:23;;;;;;;3.75;0.50;;;27.50;47.40;;;;;;4926683;29;20465;-85
2021/09/16 12:13:49;;;;;;;1.67;0.45;;;27.20;48.00;;;;;;4909906;29;20024;-85
2021/09/16 12:16:19;;;;;;;1.85;0.40;;;26.70;48.60;;;;;;4925558;29;20032;-83
2021/09/16 12:18:54;;;;;;;1.45;0.40;;;26.40;49.50;;;;;;4909231;29;20040;-83
2021/09/16 12:21:28;;;;;;;3.28;0.50;;;26.10;50.10;;;;;;4938084;29;20028;-85
2021/09/16 12:23:57;;;;;;;2.00;0.50;;;26.10;50.60;;;;;;4908481;29;20032;-84
2021/09/16 12:26:25;;;;;;;2.05;0.40;;;26.10;50.10;;;;;;4940409;29;20059;-82
2021/09/16 12:29:11;;;;;;;1.75;0.40;;;26.20;50.20;;;;;;4910086;29;20035;-84
2021/09/16 12:31:53;;;;;;;2.53;0.40;;;26.30;50.20;;;;;;4926880;29;20028;-84
2021/09/16 12:34:19;;;;;;;2.15;0.40;;;26.30;49.90;;;;;;4926612;29;20119;-84
2021/09/16 12:37:11;;;;;;;3.13;0.45;;;26.40;50.40;;;;;;4907321;29;20047;-86
2021/09/16 12:39:43;;;;;;;1.00;0.40;;;26.50;50.30;;;;;;4937696;29;20119;-83
2021/09/16 12:42:09;;;;;;;2.90;0.40;;;26.60;50.20;;;;;;4923522;29;20075;-83
2021/09/16 12:44:38;;;;;;;1.42;0.40;;;26.50;49.10;;;;;;4891581;29;20145;-87
2021/09/16 12:47:07;;;;;;;1.90;0.40;;;26.60;49.20;;;;;;4908319;29;20028;-84